Time,TemperatureF,DewpointF,PressureIn,WindDirection,WindDirectionDegrees,WindSpeedMPH,WindSpeedGustMPH,Humidity,HourlyPrecipIn,Conditions,Clouds,dailyrainin,SoftwareType,DateUTC
2013-04-24 00:02:00,28.0,21.0,-100.00,WNW,295,5.0,7.0,74,0.00,,,-99.99,,2013-04-24 05:02:00,
2013-04-24 00:12:00,28.0,21.0,-100.00,WNW,295,5.0,7.0,75,0.00,,,-99.99,,2013-04-24 05:12:00,
2013-04-24 00:21:00,28.0,21.0,-100.00,WNW,290,4.0,7.0,75,0.00,,,-99.99,,2013-04-24 05:21:00,
2013-04-24 00:32:00,27.0,21.0,-100.00,WNW,300,4.0,6.0,77,0.00,,,-99.99,,2013-04-24 05:32:00,
2013-04-24 00:42:00,27.0,21.0,-100.00,WNW,300,4.0,6.0,77,0.00,,,-99.99,,2013-04-24 05:42:00,
2013-04-24 00:51:00,27.0,21.0,-100.00,WNW,285,3.0,6.0,78,0.00,,,-99.99,,2013-04-24 05:51:00,
2013-04-24 01:02:00,27.0,21.0,-100.00,WNW,285,3.0,6.0,78,0.00,,,-99.99,,2013-04-24 06:02:00,
2013-04-24 01:12:00,27.0,21.0,-100.00,West,275,3.0,4.0,78,0.00,,,-99.99,,2013-04-24 06:12:00,
2013-04-24 01:21:00,26.0,21.0,-100.00,West,280,4.0,6.0,79,0.00,,,-99.99,,2013-04-24 06:21:00,
2013-04-24 01:32:00,26.0,21.0,-100.00,West,275,5.0,6.0,81,0.00,,,-99.99,,2013-04-24 06:32:00,
2013-04-24 01:42:00,26.0,21.0,-100.00,West,275,5.0,6.0,81,0.00,,,-99.99,,2013-04-24 06:42:00,
2013-04-24 01:51:00,27.0,22.0,-100.00,WSW,255,4.0,6.0,82,0.00,,,-99.99,,2013-04-24 06:51:00,
2013-04-24 02:02:00,27.0,22.0,-100.00,WSW,255,4.0,6.0,82,0.00,,,-99.99,,2013-04-24 07:02:00,
2013-04-24 02:11:00,27.0,22.0,-100.00,WSW,255,4.0,6.0,83,0.00,,,-99.99,,2013-04-24 07:11:00,
2013-04-24 02:22:00,26.0,21.0,-100.00,WSW,240,4.0,5.0,83,0.00,,,-99.99,,2013-04-24 07:22:00,
2013-04-24 02:32:00,26.0,22.0,-100.00,SSW,200,4.0,6.0,84,0.00,,,-99.99,,2013-04-24 07:32:00,
2013-04-24 02:41:00,26.0,22.0,-100.00,SSW,200,4.0,6.0,84,0.00,,,-99.99,,2013-04-24 07:41:00,
2013-04-24 02:52:00,25.0,21.0,-100.00,SW,230,2.0,4.0,85,0.00,,,-99.99,,2013-04-24 07:52:00,
2013-04-24 03:01:00,25.0,21.0,-100.00,SW,230,2.0,4.0,85,0.00,,,-99.99,,2013-04-24 08:01:00,
2013-04-24 03:12:00,25.0,22.0,-100.00,WSW,240,4.0,4.0,85,0.00,,,-99.99,,2013-04-24 08:12:00,
2013-04-24 03:21:00,25.0,22.0,-100.00,WSW,240,4.0,6.0,86,0.00,,,-99.99,,2013-04-24 08:21:00,
2013-04-24 03:33:00,26.0,22.0,-100.00,West,265,6.0,7.0,87,0.00,,,-99.99,,2013-04-24 08:33:00,
2013-04-24 03:42:00,26.0,22.0,-100.00,West,265,6.0,7.0,87,0.00,,,-99.99,,2013-04-24 08:42:00,
2013-04-24 03:52:00,26.0,23.0,-100.00,West,270,7.0,10.0,86,0.00,,,-99.99,,2013-04-24 08:52:00,
2013-04-24 04:02:00,26.0,23.0,-100.00,West,270,7.0,10.0,86,0.00,,,-99.99,,2013-04-24 09:02:00,
2013-04-24 04:11:00,26.0,23.0,-100.00,West,265,7.0,10.0,86,0.00,,,-99.99,,2013-04-24 09:11:00,
2013-04-24 04:21:00,26.0,23.0,-100.00,West,265,7.0,9.0,86,0.00,,,-99.99,,2013-04-24 09:21:00,
2013-04-24 04:33:00,26.0,23.0,-100.00,West,265,7.0,9.0,86,0.00,,,-99.99,,2013-04-24 09:33:00,
2013-04-24 04:42:00,26.0,23.0,-100.00,West,265,7.0,9.0,86,0.00,,,-99.99,,2013-04-24 09:42:00,
2013-04-24 04:53:00,27.0,23.0,-100.00,West,275,8.0,10.0,85,0.00,,,-99.99,,2013-04-24 09:53:00,
2013-04-24 05:02:00,27.0,23.0,-100.00,West,275,8.0,10.0,85,0.00,,,-99.99,,2013-04-24 10:02:00,
2013-04-24 05:12:00,27.0,23.0,-100.00,West,275,9.0,12.0,83,0.00,,,-99.99,,2013-04-24 10:12:00,
2013-04-24 05:22:00,27.0,23.0,-100.00,West,275,9.0,11.0,83,0.00,,,-99.99,,2013-04-24 10:22:00,
2013-04-24 05:32:00,27.0,22.0,-100.00,West,275,9.0,12.0,82,0.00,,,-99.99,,2013-04-24 10:32:00,
2013-04-24 05:42:00,27.0,22.0,-100.00,West,275,9.0,12.0,82,0.00,,,-99.99,,2013-04-24 10:42:00,
2013-04-24 05:52:00,27.0,22.0,-100.00,West,275,8.0,12.0,81,0.00,,,-99.99,,2013-04-24 10:52:00,
2013-04-24 06:02:00,27.0,22.0,-100.00,West,275,8.0,12.0,81,0.00,,,-99.99,,2013-04-24 11:02:00,
2013-04-24 06:11:00,27.0,22.0,-100.00,West,265,7.0,10.0,81,0.00,,,-99.99,,2013-04-24 11:11:00,
2013-04-24 06:21:00,26.0,22.0,-100.00,West,265,7.0,10.0,82,0.00,,,-99.99,,2013-04-24 11:21:00,
2013-04-24 06:32:00,27.0,22.0,-100.00,West,275,7.0,9.0,82,0.00,,,-99.99,,2013-04-24 11:32:00,
2013-04-24 06:42:00,27.0,22.0,-100.00,West,275,7.0,9.0,82,0.00,,,-99.99,,2013-04-24 11:42:00,
2013-04-24 06:52:00,28.0,22.0,-100.00,West,280,9.0,12.0,80,0.00,,,-99.99,,2013-04-24 11:52:00,
2013-04-24 07:02:00,28.0,22.0,-100.00,West,280,9.0,12.0,80,0.00,,,-99.99,,2013-04-24 12:02:00,
2013-04-24 07:11:00,28.0,22.0,-100.00,West,280,7.0,11.0,78,0.00,,,-99.99,,2013-04-24 12:11:00,
2013-04-24 07:22:00,28.0,22.0,-100.00,West,280,7.0,10.0,78,0.00,,,-99.99,,2013-04-24 12:22:00,
2013-04-24 07:32:00,29.0,23.0,-100.00,West,280,7.0,9.0,77,0.00,,,-99.99,,2013-04-24 12:32:00,
2013-04-24 07:42:00,29.0,23.0,-100.00,West,280,7.0,9.0,77,0.00,,,-99.99,,2013-04-24 12:42:00,
2013-04-24 07:51:00,30.0,23.0,-100.00,West,270,9.0,12.0,74,0.00,,,-99.99,,2013-04-24 12:51:00,
2013-04-24 08:01:00,30.0,23.0,-100.00,West,270,9.0,12.0,74,0.00,,,-99.99,,2013-04-24 13:01:00,
2013-04-24 08:12:00,31.0,23.0,-100.00,West,275,9.0,12.0,73,0.00,,,-99.99,,2013-04-24 13:12:00,
2013-04-24 08:22:00,31.0,23.0,-100.00,West,280,11.0,14.0,72,0.00,,,-99.99,,2013-04-24 13:22:00,
2013-04-24 08:31:00,32.0,24.0,-100.00,West,270,12.0,14.0,69,0.00,,,-99.99,,2013-04-24 13:31:00,
2013-04-24 08:41:00,32.0,24.0,-100.00,West,270,12.0,14.0,69,0.00,,,-99.99,,2013-04-24 13:41:00,
2013-04-24 08:52:00,34.0,24.0,-100.00,West,270,9.0,14.0,67,0.00,,,-99.99,,2013-04-24 13:52:00,
2013-04-24 09:01:00,34.0,24.0,-100.00,West,270,9.0,14.0,67,0.00,,,-99.99,,2013-04-24 14:01:00,
2013-04-24 09:11:00,34.0,24.0,-100.00,West,260,9.0,11.0,67,0.00,,,-99.99,,2013-04-24 14:11:00,
2013-04-24 09:21:00,34.0,25.0,-100.00,West,260,12.0,14.0,67,0.00,,,-99.99,,2013-04-24 14:21:00,
2013-04-24 09:32:00,35.0,26.0,-100.00,West,270,12.0,16.0,67,0.00,,,-99.99,,2013-04-24 14:32:00,
2013-04-24 09:41:00,35.0,26.0,-100.00,West,270,12.0,16.0,67,0.00,,,-99.99,,2013-04-24 14:41:00,
2013-04-24 09:51:00,36.0,26.0,-100.00,WSW,255,12.0,14.0,67,0.00,,,-99.99,,2013-04-24 14:51:00,
2013-04-24 10:01:00,36.0,26.0,-100.00,WSW,255,12.0,14.0,67,0.00,,,-99.99,,2013-04-24 15:01:00,
2013-04-24 10:11:00,37.0,26.0,-100.00,WSW,255,11.0,14.0,65,0.00,,,-99.99,,2013-04-24 15:11:00,
2013-04-24 10:21:00,38.0,27.0,-100.00,WSW,255,13.0,15.0,64,0.00,,,-99.99,,2013-04-24 15:21:00,
2013-04-24 10:33:00,39.0,26.0,-100.00,WSW,250,14.0,18.0,59,0.00,,,-99.99,,2013-04-24 15:33:00,
2013-04-24 10:42:00,39.0,26.0,-100.00,WSW,250,14.0,18.0,59,0.00,,,-99.99,,2013-04-24 15:42:00,
2013-04-24 10:52:00,40.0,26.0,-100.00,WSW,245,17.0,20.0,56,0.00,,,-99.99,,2013-04-24 15:52:00,
2013-04-24 11:03:00,40.0,26.0,-100.00,WSW,245,17.0,20.0,56,0.00,,,-99.99,,2013-04-24 16:03:00,
2013-04-24 11:12:00,41.0,26.0,-100.00,SW,235,16.0,20.0,54,0.00,,,-99.99,,2013-04-24 16:12:00,
2013-04-24 11:23:00,41.0,24.0,-100.00,WSW,250,16.0,21.0,51,0.00,,,-99.99,,2013-04-24 16:23:00,
2013-04-24 11:32:00,42.0,25.0,-100.00,WSW,250,19.0,25.0,50,0.00,,,-99.99,,2013-04-24 16:32:00,
2013-04-24 11:42:00,42.0,25.0,-100.00,WSW,250,19.0,25.0,50,0.00,,,-99.99,,2013-04-24 16:42:00,
2013-04-24 11:52:00,44.0,26.0,-100.00,SW,230,17.0,24.0,50,0.00,,,-99.99,,2013-04-24 16:52:00,
2013-04-24 12:02:00,44.0,26.0,-100.00,SW,230,17.0,24.0,50,0.00,,,-99.99,,2013-04-24 17:02:00,
2013-04-24 12:12:00,44.0,26.0,-100.00,SW,225,19.0,24.0,50,0.00,,,-99.99,,2013-04-24 17:12:00,
2013-04-24 12:22:00,44.0,26.0,-100.00,SW,230,19.0,24.0,48,0.00,,,-99.99,,2013-04-24 17:22:00,
2013-04-24 12:32:00,45.0,26.0,-100.00,SW,235,19.0,26.0,46,0.00,,,-99.99,,2013-04-24 17:32:00,
2013-04-24 12:42:00,45.0,26.0,-100.00,SW,235,19.0,26.0,46,0.00,,,-99.99,,2013-04-24 17:42:00,
2013-04-24 12:51:00,46.0,27.0,-100.00,SW,215,16.0,24.0,46,0.00,,,-99.99,,2013-04-24 17:51:00,
2013-04-24 13:02:00,46.0,27.0,-100.00,SW,215,16.0,24.0,46,0.00,,,-99.99,,2013-04-24 18:02:00,
2013-04-24 13:12:00,46.0,27.0,-100.00,SW,220,17.0,26.0,46,0.00,,,-99.99,,2013-04-24 18:12:00,
2013-04-24 13:21:00,47.0,27.0,-100.00,SSW,210,21.0,26.0,46,0.00,,,-99.99,,2013-04-24 18:21:00,
2013-04-24 13:33:00,46.0,24.0,-100.00,SW,235,21.0,26.0,42,0.00,,,-99.99,,2013-04-24 18:33:00,
2013-04-24 13:42:00,46.0,24.0,-100.00,SW,235,21.0,26.0,42,0.00,,,-99.99,,2013-04-24 18:42:00,
2013-04-24 13:52:00,46.0,26.0,-100.00,WSW,245,19.0,27.0,44,0.00,,,-99.99,,2013-04-24 18:52:00,
2013-04-24 14:02:00,46.0,26.0,-100.00,WSW,245,19.0,27.0,44,0.00,,,-99.99,,2013-04-24 19:02:00,
2013-04-24 14:11:00,48.0,28.0,-100.00,SW,225,17.0,26.0,45,0.00,,,-99.99,,2013-04-24 19:11:00,
2013-04-24 14:21:00,48.0,28.0,-100.00,SW,225,17.0,26.0,45,0.00,,,-99.99,,2013-04-24 19:21:00,
2013-04-24 14:32:00,49.0,29.0,-100.00,SW,235,19.0,27.0,45,0.00,,,-99.99,,2013-04-24 19:32:00,
2013-04-24 14:42:00,49.0,29.0,-100.00,SW,235,19.0,27.0,45,0.00,,,-99.99,,2013-04-24 19:42:00,
2013-04-24 14:52:00,49.0,28.0,-100.00,SW,225,23.0,28.0,43,0.00,,,-99.99,,2013-04-24 19:52:00,
2013-04-24 15:02:00,49.0,28.0,-100.00,SW,225,23.0,28.0,43,0.00,,,-99.99,,2013-04-24 20:02:00,
2013-04-24 15:11:00,49.0,27.0,-100.00,WSW,245,19.0,29.0,42,0.00,,,-99.99,,2013-04-24 20:11:00,
2013-04-24 15:21:00,49.0,28.0,-100.00,SW,235,21.0,25.0,42,0.00,,,-99.99,,2013-04-24 20:21:00,
2013-04-24 15:32:00,50.0,27.0,-100.00,WSW,240,24.0,29.0,41,0.00,,,-99.99,,2013-04-24 20:32:00,
2013-04-24 15:42:00,50.0,27.0,-100.00,WSW,240,24.0,29.0,41,0.00,,,-99.99,,2013-04-24 20:42:00,
2013-04-24 15:51:00,51.0,28.0,-100.00,SW,230,22.0,28.0,41,0.00,,,-99.99,,2013-04-24 20:51:00,
2013-04-24 16:02:00,51.0,28.0,-100.00,SW,230,22.0,28.0,41,0.00,,,-99.99,,2013-04-24 21:02:00,
2013-04-24 16:11:00,51.0,28.0,-100.00,WSW,250,24.0,29.0,40,0.00,,,-99.99,,2013-04-24 21:11:00,
2013-04-24 16:21:00,52.0,28.0,-100.00,WSW,255,23.0,28.0,39,0.00,,,-99.99,,2013-04-24 21:21:00,
2013-04-24 16:33:00,52.0,27.0,-100.00,WSW,255,29.0,35.0,38,0.00,,,-99.99,,2013-04-24 21:33:00,
2013-04-24 16:42:00,52.0,28.0,-100.00,WSW,255,29.0,34.0,38,0.00,,,-99.99,,2013-04-24 21:42:00,
2013-04-24 16:52:00,52.0,29.0,-100.00,West,260,26.0,34.0,40,0.00,,,-99.99,,2013-04-24 21:52:00,
2013-04-24 17:03:00,52.0,29.0,-100.00,West,260,26.0,34.0,40,0.00,,,-99.99,,2013-04-24 22:03:00,
2013-04-24 17:12:00,50.0,28.0,-100.00,WSW,255,23.0,28.0,42,0.00,,,-99.99,,2013-04-24 22:12:00,
2013-04-24 17:22:00,49.0,28.0,-100.00,West,260,26.0,31.0,43,0.00,,,-99.99,,2013-04-24 22:22:00,
2013-04-24 17:33:00,40.0,33.0,-100.00,West,270,12.0,23.0,74,0.00,,,-99.99,,2013-04-24 22:33:00,
2013-04-24 17:42:00,40.0,33.0,-100.00,West,270,12.0,23.0,74,0.00,,,-99.99,,2013-04-24 22:42:00,
2013-04-24 17:52:00,43.0,38.0,-100.00,West,275,13.0,17.0,81,0.00,,,-99.99,,2013-04-24 22:52:00,
2013-04-24 18:02:00,43.0,38.0,-100.00,West,275,13.0,17.0,81,0.00,,,-99.99,,2013-04-24 23:02:00,
2013-04-24 18:12:00,45.0,38.0,-100.00,WNW,285,16.0,28.0,76,0.00,,,-99.99,,2013-04-24 23:12:00,
2013-04-24 18:21:00,44.0,34.0,-100.00,WNW,290,22.0,29.0,68,0.00,,,-99.99,,2013-04-24 23:21:00,
2013-04-24 18:32:00,44.0,33.0,-100.00,West,280,22.0,26.0,65,0.00,,,-99.99,,2013-04-24 23:32:00,
2013-04-24 18:42:00,44.0,33.0,-100.00,West,280,22.0,26.0,65,0.00,,,-99.99,,2013-04-24 23:42:00,
2013-04-24 18:51:00,43.0,32.0,-100.00,NW,305,21.0,29.0,63,0.00,,,-99.99,,2013-04-24 23:51:00,
2013-04-24 19:01:00,43.0,32.0,-100.00,NW,305,21.0,29.0,63,0.00,,,-99.99,,2013-04-25 00:01:00,
2013-04-24 19:12:00,43.0,32.0,-100.00,WNW,300,14.0,24.0,64,0.00,,,-99.99,,2013-04-25 00:12:00,
2013-04-24 19:22:00,42.0,31.0,-100.00,WNW,300,19.0,23.0,64,0.00,,,-99.99,,2013-04-25 00:22:00,
2013-04-24 19:32:00,41.0,31.0,-100.00,WNW,290,11.0,26.0,66,0.00,,,-99.99,,2013-04-25 00:32:00,
2013-04-24 19:41:00,41.0,31.0,-100.00,WNW,290,11.0,26.0,66,0.00,,,-99.99,,2013-04-25 00:41:00,
2013-04-24 19:52:00,41.0,31.0,-100.00,WNW,285,15.0,20.0,68,0.00,,,-99.99,,2013-04-25 00:52:00,
2013-04-24 20:01:00,41.0,31.0,-100.00,WNW,285,15.0,20.0,68,0.00,,,-99.99,,2013-04-25 01:01:00,
2013-04-24 20:11:00,40.0,30.0,-100.00,West,280,15.0,21.0,67,0.00,,,-99.99,,2013-04-25 01:11:00,
2013-04-24 20:22:00,40.0,30.0,-100.00,WNW,290,12.0,19.0,68,0.00,,,-99.99,,2013-04-25 01:22:00,
2013-04-24 20:32:00,39.0,31.0,-100.00,WNW,290,12.0,17.0,70,0.00,,,-99.99,,2013-04-25 01:32:00,
2013-04-24 20:42:00,39.0,31.0,-100.00,WNW,290,12.0,17.0,70,0.00,,,-99.99,,2013-04-25 01:42:00,
2013-04-24 20:52:00,39.0,31.0,-100.00,WNW,295,12.0,16.0,72,0.00,,,-99.99,,2013-04-25 01:52:00,
2013-04-24 21:02:00,39.0,31.0,-100.00,WNW,295,12.0,16.0,72,0.00,,,-99.99,,2013-04-25 02:02:00,
2013-04-24 21:11:00,38.0,31.0,-100.00,WNW,295,19.0,27.0,76,0.16,,,-99.99,,2013-04-25 02:11:00,
2013-04-24 21:22:00,36.0,32.0,-100.00,WNW,290,17.0,27.0,82,0.10,,,-99.99,,2013-04-25 02:22:00,
2013-04-24 21:32:00,36.0,32.0,-100.00,West,280,15.0,18.0,86,0.00,,,-99.99,,2013-04-25 02:32:00,
2013-04-24 21:42:00,36.0,32.0,-100.00,West,280,15.0,18.0,86,0.00,,,-99.99,,2013-04-25 02:42:00,
2013-04-24 21:51:00,36.0,32.0,-100.00,West,280,15.0,18.0,86,0.00,,,-99.99,,2013-04-25 02:51:00,
2013-04-24 22:02:00,35.0,32.0,-100.00,WNW,295,15.0,19.0,88,0.00,,,-99.99,,2013-04-25 03:02:00,
2013-04-24 22:11:00,35.0,32.0,-100.00,WNW,285,14.0,18.0,88,0.00,,,-99.99,,2013-04-25 03:11:00,
2013-04-24 22:22:00,35.0,32.0,-100.00,NW,305,17.0,21.0,88,0.00,,,-99.99,,2013-04-25 03:22:00,
2013-04-24 22:33:00,35.0,32.0,-100.00,WNW,300,14.0,19.0,88,0.00,,,-99.99,,2013-04-25 03:33:00,
2013-04-24 22:42:00,35.0,32.0,-100.00,WNW,300,14.0,19.0,88,0.00,,,-99.99,,2013-04-25 03:42:00,
2013-04-24 22:52:00,35.0,31.0,-100.00,WNW,295,11.0,14.0,87,0.00,,,-99.99,,2013-04-25 03:52:00,
2013-04-24 23:03:00,35.0,31.0,-100.00,WNW,295,11.0,14.0,87,0.00,,,-99.99,,2013-04-25 04:03:00,
2013-04-24 23:12:00,35.0,31.0,-100.00,WNW,290,13.0,16.0,87,0.00,,,-99.99,,2013-04-25 04:12:00,
2013-04-24 23:22:00,35.0,31.0,-100.00,WNW,285,11.0,13.0,87,0.00,,,-99.99,,2013-04-25 04:22:00,
2013-04-24 23:32:00,34.0,31.0,-100.00,WNW,290,10.0,17.0,87,0.00,,,-99.99,,2013-04-25 04:32:00,
2013-04-24 23:43:00,34.0,31.0,-100.00,WNW,290,10.0,17.0,87,0.00,,,-99.99,,2013-04-25 04:43:00,
2013-04-24 23:52:00,34.0,30.0,-100.00,West,280,9.0,11.0,86,0.00,,,-99.99,,2013-04-25 04:52:00,